Time;durP1;ratioP1;P1;durP2;ratioP2;P2;SDS_P1;SDS_P2;PMS_P1;PMS_P2;Temp;Humidity;BMP_temperature;BMP_pressure;BME280_temperature;BME280_humidity;BME280_pressure;Samples;Min_cycle;Max_cycle;Signal;HPM_P1;HPM_P2
2021/03/23 00:01:50;;;;;;;3.03;1.60;;;;;;;;;;5084918;28;20032;-59
2021/03/23 00:04:16;;;;;;;4.45;2.45;;;;;;;;;;5082376;27;20055;-59
2021/03/23 00:06:42;;;;;;;7.57;2.20;;;;;;;;;;5047296;28;20024;-60
2021/03/23 00:09:08;;;;;;;5.95;1.83;;;;;;;;;;5083681;28;20232;-59
2021/03/23 00:11:40;;;;;;;5.75;2.05;;;;;;;;;;5080928;28;20031;-59
2021/03/23 00:14:07;;;;;;;5.20;2.58;;;;;;;;;;5096832;27;20028;-58
2021/03/23 00:16:40;;;;;;;6.35;2.03;;;;;;;;;;5081909;28;20051;-58
2021/03/23 00:19:10;;;;;;;10.82;2.67;;;;;;;;;;5081910;28;20031;-58
2021/03/23 00:21:36;;;;;;;8.30;2.72;;;;;;;;;;5083328;28;20031;-59
2021/03/23 00:24:02;;;;;;;8.07;2.90;;;;;;;;;;5083102;28;20036;-58
2021/03/23 00:26:30;;;;;;;5.18;2.45;;;;;;;;;;5101304;27;20411;-59
2021/03/23 00:28:58;;;;;;;4.95;2.92;;;;;;;;;;5089615;27;20046;-59
2021/03/23 00:31:28;;;;;;;7.75;2.67;;;;;;;;;;5080943;28;20024;-60
2021/03/23 00:33:57;;;;;;;5.53;2.83;;;;;;;;;;5064350;28;20158;-59
2021/03/23 00:36:23;;;;;;;9.65;3.22;;;;;;;;;;5079901;28;20157;-59
2021/03/23 00:38:52;;;;;;;8.90;2.60;;;;;;;;;;5085702;27;20032;-60
2021/03/23 00:41:21;;;;;;;5.45;2.63;;;;;;;;;;5082127;28;20042;-59
2021/03/23 00:43:49;;;;;;;9.27;3.20;;;;;;;;;;5080752;28;20161;-58
2021/03/23 00:46:15;;;;;;;7.03;2.95;;;;;;;;;;5081321;28;20028;-59
2021/03/23 00:48:43;;;;;;;6.93;2.80;;;;;;;;;;5081768;28;21308;-59
2021/03/23 00:51:11;;;;;;;5.70;2.85;;;;;;;;;;5082806;28;20039;-59
2021/03/23 00:53:39;;;;;;;9.75;3.42;;;;;;;;;;5064609;28;20052;-59
2021/03/23 00:56:07;;;;;;;6.65;2.80;;;;;;;;;;5072623;28;20046;-59
2021/03/23 00:58:35;;;;;;;4.18;2.78;;;;;;;;;;5071927;28;20055;-59
2021/03/23 01:01:00;;;;;;;6.88;2.97;;;;;;;;;;5085957;27;20043;-59
2021/03/23 01:03:26;;;;;;;8.25;2.88;;;;;;;;;;5086545;27;20049;-59
2021/03/23 01:05:56;;;;;;;10.23;3.05;;;;;;;;;;5085703;27;21359;-59
2021/03/23 01:08:27;;;;;;;9.13;2.90;;;;;;;;;;5084038;27;20039;-59
2021/03/23 01:10:52;;;;;;;8.27;3.13;;;;;;;;;;5084098;27;20039;-58
2021/03/23 01:13:18;;;;;;;9.57;3.65;;;;;;;;;;5070380;27;20337;-59
2021/03/23 01:15:43;;;;;;;5.03;2.80;;;;;;;;;;5086913;27;20112;-59
2021/03/23 01:18:11;;;;;;;10.55;3.88;;;;;;;;;;5085554;27;20686;-58
2021/03/23 01:20:37;;;;;;;7.03;3.03;;;;;;;;;;5088139;27;20036;-58
2021/03/23 01:23:02;;;;;;;6.22;3.00;;;;;;;;;;5087895;27;20030;-60
2021/03/23 01:25:30;;;;;;;6.30;2.65;;;;;;;;;;5078170;28;20172;-59
2021/03/23 01:28:00;;;;;;;8.35;2.70;;;;;;;;;;5085142;27;20471;-59
2021/03/23 01:30:27;;;;;;;5.57;2.45;;;;;;;;;;5085153;27;20039;-59
2021/03/23 01:32:53;;;;;;;6.13;2.80;;;;;;;;;;5089674;27;20459;-59
2021/03/23 01:35:19;;;;;;;5.93;3.08;;;;;;;;;;5097248;27;20092;-59
2021/03/23 01:37:45;;;;;;;5.95;2.60;;;;;;;;;;5085956;27;20050;-59
2021/03/23 01:40:13;;;;;;;4.05;2.42;;;;;;;;;;5068941;28;22028;-61
2021/03/23 01:42:45;;;;;;;6.28;3.08;;;;;;;;;;5084554;27;21637;-58
2021/03/23 01:45:39;;;;;;;6.47;3.00;;;;;;;;;;5077498;27;20036;-59
2021/03/23 01:48:15;;;;;;;7.28;3.30;;;;;;;;;;5082801;27;20043;-59
2021/03/23 01:50:44;;;;;;;13.70;3.55;;;;;;;;;;5085149;27;20147;-60
2021/03/23 01:53:12;;;;;;;7.35;3.80;;;;;;;;;;5082787;27;20127;-59
2021/03/23 01:55:40;;;;;;;8.00;3.20;;;;;;;;;;5061474;27;20020;-58
2021/03/23 01:58:06;;;;;;;7.50;3.85;;;;;;;;;;5069547;27;20399;-59
2021/03/23 02:00:34;;;;;;;7.15;3.75;;;;;;;;;;5079368;27;20179;-59
2021/03/23 02:03:03;;;;;;;7.82;3.35;;;;;;;;;;5068786;27;20091;-59
2021/03/23 02:05:32;;;;;;;10.82;4.35;;;;;;;;;;5093391;27;20056;-59
2021/03/23 02:08:00;;;;;;;11.48;4.03;;;;;;;;;;5091863;27;20058;-59
2021/03/23 02:10:28;;;;;;;9.32;4.05;;;;;;;;;;5085427;27;20398;-58
2021/03/23 02:12:55;;;;;;;18.88;4.75;;;;;;;;;;5068541;27;20029;-58
2021/03/23 02:15:24;;;;;;;11.73;5.45;;;;;;;;;;5070476;27;20075;-59
2021/03/23 02:18:08;;;;;;;9.43;4.57;;;;;;;;;;5068111;27;20107;-59
2021/03/23 02:20:35;;;;;;;9.32;4.32;;;;;;;;;;5084847;27;20062;-58
2021/03/23 02:26:02;;;;;;;10.60;5.30;;;;;;;;;;5093833;22;20059;-72
2021/03/23 02:28:33;;;;;;;19.25;5.60;;;;;;;;;;5015787;28;20112;-73
2021/03/23 02:31:05;;;;;;;12.88;5.30;;;;;;;;;;5000901;28;20086;-72
2021/03/23 02:33:33;;;;;;;8.57;4.95;;;;;;;;;;5004151;28;20057;-73
2021/03/23 02:36:07;;;;;;;9.13;5.13;;;;;;;;;;5017252;28;21143;-72
2021/03/23 02:38:32;;;;;;;14.18;6.80;;;;;;;;;;5015866;28;20025;-74
2021/03/23 02:41:02;;;;;;;13.32;5.03;;;;;;;;;;4996156;28;20950;-72
2021/03/23 02:43:31;;;;;;;10.75;5.25;;;;;;;;;;5014239;28;20064;-73
2021/03/23 02:46:00;;;;;;;13.18;4.68;;;;;;;;;;5015619;28;20033;-73
2021/03/23 02:48:30;;;;;;;10.15;5.47;;;;;;;;;;5000120;28;20040;-73
2021/03/23 02:50:58;;;;;;;15.10;5.53;;;;;;;;;;5013369;28;20036;-73
2021/03/23 02:53:26;;;;;;;8.98;4.30;;;;;;;;;;5016643;28;20125;-73
2021/03/23 02:55:54;;;;;;;17.40;6.32;;;;;;;;;;5014724;28;20034;-72
2021/03/23 02:58:22;;;;;;;15.20;5.82;;;;;;;;;;4998913;28;20033;-73
2021/03/23 03:00:54;;;;;;;15.85;5.60;;;;;;;;;;5015194;28;20048;-74
2021/03/23 03:03:22;;;;;;;12.73;5.35;;;;;;;;;;5013491;28;20032;-72
2021/03/23 03:05:52;;;;;;;13.73;5.78;;;;;;;;;;5004662;28;20482;-73
2021/03/23 03:08:24;;;;;;;14.98;5.80;;;;;;;;;;5013750;28;20064;-73
2021/03/23 03:10:50;;;;;;;12.80;5.38;;;;;;;;;;5014679;28;20024;-72
2021/03/23 03:13:23;;;;;;;18.20;6.05;;;;;;;;;;5012801;28;20040;-74
2021/03/23 03:15:55;;;;;;;12.40;5.25;;;;;;;;;;5017092;28;20037;-73
2021/03/23 03:18:26;;;;;;;19.42;6.05;;;;;;;;;;5015674;28;20036;-73
2021/03/23 03:20:55;;;;;;;11.68;5.40;;;;;;;;;;4999639;28;20120;-73
2021/03/23 03:23:21;;;;;;;14.25;5.68;;;;;;;;;;5014603;28;20391;-73
2021/03/23 03:25:47;;;;;;;16.17;5.57;;;;;;;;;;5014200;28;20042;-72
2021/03/23 03:28:15;;;;;;;9.73;5.15;;;;;;;;;;5000856;28;20025;-74
2021/03/23 03:30:47;;;;;;;19.48;5.90;;;;;;;;;;5015976;28;20021;-73
2021/03/23 03:33:21;;;;;;;12.25;5.38;;;;;;;;;;5014578;28;20021;-73
2021/03/23 03:35:50;;;;;;;14.38;5.55;;;;;;;;;;5018065;28;20068;-73
2021/03/23 03:38:19;;;;;;;11.68;5.72;;;;;;;;;;5017934;28;20821;-73
2021/03/23 03:41:00;;;;;;;11.10;6.20;;;;;;;;;;5012769;28;20120;-73
2021/03/23 03:43:31;;;;;;;12.70;5.55;;;;;;;;;;5011640;28;20040;-74
2021/03/23 03:46:01;;;;;;;12.48;5.40;;;;;;;;;;5015454;28;20296;-73
2021/03/23 03:48:33;;;;;;;11.52;5.38;;;;;;;;;;5013059;28;20052;-73
2021/03/23 03:51:01;;;;;;;17.90;6.03;;;;;;;;;;4999128;28;20124;-74
2021/03/23 03:53:28;;;;;;;16.65;6.53;;;;;;;;;;5016850;28;20018;-74
2021/03/23 03:55:54;;;;;;;15.38;6.63;;;;;;;;;;5001790;28;20139;-73
2021/03/23 03:58:25;;;;;;;15.18;6.45;;;;;;;;;;5015986;28;20170;-74
2021/03/23 04:00:55;;;;;;;15.50;7.00;;;;;;;;;;5015423;28;20099;-73
2021/03/23 04:03:25;;;;;;;15.18;6.10;;;;;;;;;;5014842;28;20036;-72
2021/03/23 04:05:57;;;;;;;17.55;6.65;;;;;;;;;;5015398;28;20026;-72
2021/03/23 04:08:28;;;;;;;15.38;7.15;;;;;;;;;;5012696;28;20094;-74
2021/03/23 04:10:57;;;;;;;18.13;6.85;;;;;;;;;;5020253;28;20480;-74
2021/03/23 04:13:25;;;;;;;14.05;6.78;;;;;;;;;;5001074;28;20135;-72
2021/03/23 04:15:51;;;;;;;16.88;6.80;;;;;;;;;;5015034;28;20037;-74
2021/03/23 04:18:21;;;;;;;19.17;7.43;;;;;;;;;;5016801;28;20017;-72
2021/03/23 04:20:51;;;;;;;25.65;7.57;;;;;;;;;;5013322;28;20496;-73
2021/03/23 04:23:22;;;;;;;26.02;8.75;;;;;;;;;;5001100;28;20029;-74
2021/03/23 04:25:53;;;;;;;23.35;8.45;;;;;;;;;;5017017;28;20057;-73
2021/03/23 04:28:21;;;;;;;19.27;7.90;;;;;;;;;;5023971;28;20112;-74
2021/03/23 04:30:47;;;;;;;20.92;7.70;;;;;;;;;;5031159;28;20029;-72
2021/03/23 04:33:19;;;;;;;21.55;8.20;;;;;;;;;;5016569;28;20025;-73
2021/03/23 04:35:51;;;;;;;18.92;8.25;;;;;;;;;;5016341;28;20709;-74
2021/03/23 04:38:26;;;;;;;24.42;8.30;;;;;;;;;;5020695;28;20036;-73
2021/03/23 04:40:52;;;;;;;19.33;7.63;;;;;;;;;;5016864;28;20021;-72
2021/03/23 04:43:23;;;;;;;17.30;8.10;;;;;;;;;;5036158;28;20052;-74
2021/03/23 04:45:50;;;;;;;20.08;7.90;;;;;;;;;;5021165;28;20090;-73
2021/03/23 04:48:18;;;;;;;23.20;7.78;;;;;;;;;;4989363;28;20037;-74
2021/03/23 04:50:49;;;;;;;23.75;8.20;;;;;;;;;;5016241;28;20040;-72
2021/03/23 04:53:19;;;;;;;18.77;8.45;;;;;;;;;;5035124;28;20108;-73
2021/03/23 04:55:45;;;;;;;23.55;8.90;;;;;;;;;;5001935;28;20083;-73
2021/03/23 04:58:13;;;;;;;24.40;8.88;;;;;;;;;;5015737;28;20664;-74
2021/03/23 05:00:39;;;;;;;27.27;8.90;;;;;;;;;;5004552;28;20036;-73
2021/03/23 05:03:11;;;;;;;23.38;8.63;;;;;;;;;;5015666;28;20032;-72
2021/03/23 05:05:38;;;;;;;23.00;8.68;;;;;;;;;;5016009;28;20509;-72
2021/03/23 05:08:06;;;;;;;19.23;8.35;;;;;;;;;;5020359;28;20030;-73
2021/03/23 05:10:34;;;;;;;19.27;7.47;;;;;;;;;;5013279;28;20021;-74
2021/03/23 05:13:00;;;;;;;20.67;8.45;;;;;;;;;;5015595;28;20044;-73
2021/03/23 05:15:29;;;;;;;15.32;7.63;;;;;;;;;;5014769;28;20144;-72
2021/03/23 05:17:57;;;;;;;30.45;9.02;;;;;;;;;;5015818;28;20036;-72
2021/03/23 05:20:22;;;;;;;26.25;10.38;;;;;;;;;;5015684;28;20061;-73
2021/03/23 05:22:48;;;;;;;28.50;11.52;;;;;;;;;;5014531;28;21992;-73
2021/03/23 05:25:14;;;;;;;36.83;13.90;;;;;;;;;;5016457;28;20616;-73
2021/03/23 05:27:39;;;;;;;38.28;15.10;;;;;;;;;;5015563;28;20164;-73
2021/03/23 05:30:06;;;;;;;47.67;15.75;;;;;;;;;;5016249;28;20065;-72
2021/03/23 05:32:36;;;;;;;42.67;15.73;;;;;;;;;;5019210;28;20086;-72
2021/03/23 05:35:07;;;;;;;50.42;18.45;;;;;;;;;;5017821;28;20484;-73
2021/03/23 05:37:35;;;;;;;47.47;17.67;;;;;;;;;;5018268;28;20124;-73
2021/03/23 05:40:00;;;;;;;57.42;17.15;;;;;;;;;;5015394;28;20030;-73
2021/03/23 05:42:39;;;;;;;56.60;18.30;;;;;;;;;;5020311;28;20479;-73
2021/03/23 05:45:13;;;;;;;66.47;19.63;;;;;;;;;;5018300;28;20082;-73
2021/03/23 05:47:42;;;;;;;56.20;19.27;;;;;;;;;;5019090;28;20167;-73
2021/03/23 05:50:07;;;;;;;64.35;19.80;;;;;;;;;;4999297;28;21968;-72
2021/03/23 05:52:48;;;;;;;63.22;18.98;;;;;;;;;;5010880;28;20036;-73
2021/03/23 05:55:14;;;;;;;60.00;19.38;;;;;;;;;;5017888;28;20863;-73
2021/03/23 05:57:47;;;;;;;58.30;21.13;;;;;;;;;;5016653;28;20030;-74
2021/03/23 06:00:27;;;;;;;64.38;21.30;;;;;;;;;;5019831;28;20498;-73
2021/03/23 06:03:05;;;;;;;69.60;20.65;;;;;;;;;;5019065;28;20121;-72
2021/03/23 06:05:39;;;;;;;58.33;18.65;;;;;;;;;;5012864;28;20025;-73
2021/03/23 06:08:06;;;;;;;71.53;21.95;;;;;;;;;;5013231;28;20042;-73
2021/03/23 06:10:36;;;;;;;63.00;20.65;;;;;;;;;;5018883;28;20809;-71
2021/03/23 06:13:20;;;;;;;77.32;20.42;;;;;;;;;;5008341;28;20025;-73
2021/03/23 06:16:15;;;;;;;74.25;21.27;;;;;;;;;;5017646;28;20056;-72
2021/03/23 06:18:54;;;;;;;63.15;20.17;;;;;;;;;;5020778;28;20033;-74
2021/03/23 06:21:22;;;;;;;71.38;21.88;;;;;;;;;;5024458;28;20628;-72
2021/03/23 06:23:59;;;;;;;68.32;21.05;;;;;;;;;;5018373;28;20017;-72
2021/03/23 06:26:27;;;;;;;75.45;20.10;;;;;;;;;;5009365;28;20056;-72
2021/03/23 06:29:01;;;;;;;59.90;20.00;;;;;;;;;;4997690;28;20110;-71
2021/03/23 06:31:44;;;;;;;70.80;19.70;;;;;;;;;;5018293;28;20025;-72
2021/03/23 06:34:20;;;;;;;66.68;19.45;;;;;;;;;;5014537;28;20583;-72
2021/03/23 06:36:46;;;;;;;75.75;20.75;;;;;;;;;;5016470;28;20029;-73
2021/03/23 06:39:12;;;;;;;77.38;19.95;;;;;;;;;;5014939;28;20120;-73
2021/03/23 06:42:00;;;;;;;65.80;20.90;;;;;;;;;;5016136;28;20053;-75
2021/03/23 06:44:29;;;;;;;69.80;21.15;;;;;;;;;;5018940;28;20041;-73
2021/03/23 06:46:55;;;;;;;70.60;18.88;;;;;;;;;;5033522;28;20166;-73
2021/03/23 06:49:27;;;;;;;72.93;21.63;;;;;;;;;;5002663;28;20126;-73
2021/03/23 06:51:53;;;;;;;82.68;20.73;;;;;;;;;;5016300;28;20060;-73
2021/03/23 06:54:38;;;;;;;85.07;21.73;;;;;;;;;;5016679;28;20022;-73
2021/03/23 06:57:14;;;;;;;69.80;20.65;;;;;;;;;;5016837;28;20507;-73
2021/03/23 06:59:54;;;;;;;72.68;21.27;;;;;;;;;;5014586;28;20040;-73
2021/03/23 07:02:37;;;;;;;69.63;21.35;;;;;;;;;;5023235;28;20033;-71
2021/03/23 07:05:19;;;;;;;67.60;19.88;;;;;;;;;;5014865;28;20036;-72
2021/03/23 07:07:55;;;;;;;62.90;20.67;;;;;;;;;;5019342;28;20192;-73
2021/03/23 07:10:30;;;;;;;66.47;22.00;;;;;;;;;;5017744;28;20033;-74
2021/03/23 07:12:58;;;;;;;62.33;22.10;;;;;;;;;;5000681;28;20115;-74
2021/03/23 07:15:26;;;;;;;65.72;21.45;;;;;;;;;;5004911;28;20032;-73
2021/03/23 07:17:53;;;;;;;72.55;22.50;;;;;;;;;;5016422;28;20033;-73
2021/03/23 07:20:21;;;;;;;61.88;21.15;;;;;;;;;;5014006;28;20045;-73
2021/03/23 07:22:51;;;;;;;68.15;23.35;;;;;;;;;;5025806;28;20040;-73
2021/03/23 07:25:35;;;;;;;67.07;22.08;;;;;;;;;;5037586;28;20049;-73
2021/03/23 07:28:19;;;;;;;74.57;23.63;;;;;;;;;;5002990;28;20052;-73
2021/03/23 07:30:50;;;;;;;68.18;22.00;;;;;;;;;;5017560;28;20044;-73
2021/03/23 07:33:34;;;;;;;70.63;23.15;;;;;;;;;;5017295;28;20024;-73
2021/03/23 07:36:05;;;;;;;60.08;20.90;;;;;;;;;;5004082;28;20672;-74
2021/03/23 07:38:37;;;;;;;65.28;23.33;;;;;;;;;;5017145;28;20095;-73
2021/03/23 07:41:08;;;;;;;78.50;23.88;;;;;;;;;;5016794;28;20033;-72
2021/03/23 07:44:09;;;;;;;62.90;23.25;;;;;;;;;;5017779;28;22441;-75
2021/03/23 07:46:45;;;;;;;66.78;22.92;;;;;;;;;;4964742;28;20095;-72
2021/03/23 07:49:29;;;;;;;63.38;22.55;;;;;;;;;;5002194;28;20052;-72
2021/03/23 07:51:59;;;;;;;61.35;21.42;;;;;;;;;;5031022;28;20039;-73
2021/03/23 07:54:38;;;;;;;55.22;21.98;;;;;;;;;;5016099;28;20025;-71
2021/03/23 07:57:23;;;;;;;58.83;21.83;;;;;;;;;;5016996;28;20666;-72
2021/03/23 08:00:12;;;;;;;63.50;22.25;;;;;;;;;;5010515;28;20095;-73
2021/03/23 08:02:58;;;;;;;46.90;20.30;;;;;;;;;;5009614;28;20029;-73
2021/03/23 08:05:29;;;;;;;64.85;22.67;;;;;;;;;;5014898;28;20032;-73
2021/03/23 08:07:57;;;;;;;54.45;21.10;;;;;;;;;;5018343;28;20041;-73
2021/03/23 08:10:38;;;;;;;47.88;21.25;;;;;;;;;;5006334;28;20057;-72
2021/03/23 08:13:15;;;;;;;54.33;20.55;;;;;;;;;;5025656;28;20170;-72
2021/03/23 08:15:41;;;;;;;44.42;19.38;;;;;;;;;;5023523;28;20029;-74
2021/03/23 08:18:09;;;;;;;46.30;19.05;;;;;;;;;;5022372;28;20097;-72
2021/03/23 08:20:56;;;;;;;49.13;20.35;;;;;;;;;;5023006;28;20676;-72
2021/03/23 08:23:40;;;;;;;48.25;19.13;;;;;;;;;;5020441;28;20033;-72
2021/03/23 08:26:25;;;;;;;46.08;18.73;;;;;;;;;;5026011;28;20049;-71
2021/03/23 08:28:54;;;;;;;35.38;16.80;;;;;;;;;;5020488;28;20282;-73
2021/03/23 08:31:43;;;;;;;47.58;18.50;;;;;;;;;;5019760;28;20122;-72
2021/03/23 08:34:20;;;;;;;41.95;19.40;;;;;;;;;;4991002;28;20130;-75
2021/03/23 08:37:13;;;;;;;40.40;17.30;;;;;;;;;;5002479;28;20140;-73
2021/03/23 08:39:48;;;;;;;43.33;18.02;;;;;;;;;;5002604;28;20041;-74
2021/03/23 08:42:16;;;;;;;36.90;16.58;;;;;;;;;;5019933;28;20132;-73
2021/03/23 08:44:47;;;;;;;37.67;16.80;;;;;;;;;;5019598;28;20025;-74
2021/03/23 08:47:19;;;;;;;32.70;16.85;;;;;;;;;;5006168;28;20037;-73
2021/03/23 08:49:47;;;;;;;35.47;16.42;;;;;;;;;;5019400;28;20033;-71
2021/03/23 08:52:18;;;;;;;37.05;16.23;;;;;;;;;;5012708;28;20026;-72
2021/03/23 08:54:50;;;;;;;31.98;16.13;;;;;;;;;;5017655;28;20045;-73
2021/03/23 08:57:19;;;;;;;29.88;15.45;;;;;;;;;;5022168;28;20033;-75
2021/03/23 08:59:50;;;;;;;31.58;15.70;;;;;;;;;;5023705;28;20055;-73
2021/03/23 09:02:16;;;;;;;37.00;16.38;;;;;;;;;;5024563;28;20044;-73
2021/03/23 09:04:56;;;;;;;29.77;14.15;;;;;;;;;;5021666;28;20362;-73
2021/03/23 09:07:27;;;;;;;34.95;15.30;;;;;;;;;;5020378;28;20094;-72
2021/03/23 09:09:55;;;;;;;29.98;14.93;;;;;;;;;;5020434;28;20306;-69
2021/03/23 09:12:35;;;;;;;30.23;14.50;;;;;;;;;;5022161;28;21979;-70
2021/03/23 09:15:23;;;;;;;29.83;14.65;;;;;;;;;;5019843;28;20105;-73
2021/03/23 09:17:58;;;;;;;30.05;13.95;;;;;;;;;;5018767;28;20029;-72
2021/03/23 09:20:33;;;;;;;27.67;13.85;;;;;;;;;;5017768;28;20331;-74
2021/03/23 09:23:20;;;;;;;26.13;13.60;;;;;;;;;;5019372;28;20037;-75
2021/03/23 09:25:59;;;;;;;27.45;13.73;;;;;;;;;;5016859;28;20053;-71
2021/03/23 09:28:30;;;;;;;30.63;13.43;;;;;;;;;;5010046;28;20056;-72
2021/03/23 09:31:02;;;;;;;31.25;13.73;;;;;;;;;;5019169;28;20032;-72
2021/03/23 09:33:36;;;;;;;29.23;12.98;;;;;;;;;;5020222;28;20032;-73
2021/03/23 09:36:02;;;;;;;;;;;;;;;;;;5018465;28;20746;-71
2021/03/23 09:38:33;;;;;;;30.65;14.77;;;;;;;;;;5017850;28;19917;-71
2021/03/23 09:41:05;;;;;;;28.70;13.93;;;;;;;;;;5017896;28;20107;-73
2021/03/23 09:43:38;;;;;;;25.33;13.75;;;;;;;;;;5000750;28;20040;-70
2021/03/23 09:46:15;;;;;;;28.08;14.27;;;;;;;;;;5008066;28;22549;-72
2021/03/23 09:48:47;;;;;;;33.83;13.80;;;;;;;;;;5020140;28;20865;-72
2021/03/23 09:51:21;;;;;;;27.00;12.48;;;;;;;;;;5020338;28;20033;-73
2021/03/23 09:53:47;;;;;;;25.92;13.38;;;;;;;;;;5020501;28;20040;-73
2021/03/23 09:56:13;;;;;;;25.10;12.88;;;;;;;;;;5019186;28;20131;-70
2021/03/23 09:58:44;;;;;;;25.70;12.68;;;;;;;;;;5017385;28;20025;-71
2021/03/23 10:01:12;;;;;;;19.63;12.20;;;;;;;;;;5015619;28;20130;-72
2021/03/23 10:03:45;;;;;;;29.52;12.57;;;;;;;;;;5018125;28;20453;-72
2021/03/23 10:06:13;;;;;;;25.00;14.18;;;;;;;;;;5025817;28;20055;-70
2021/03/23 10:09:02;;;;;;;25.55;13.43;;;;;;;;;;5002590;28;20036;-72
2021/03/23 10:11:48;;;;;;;22.42;12.23;;;;;;;;;;5012301;28;20130;-72
2021/03/23 10:14:31;;;;;;;23.48;12.43;;;;;;;;;;5011106;28;20047;-72
2021/03/23 10:17:08;;;;;;;19.63;11.40;;;;;;;;;;5008293;28;20024;-74
2021/03/23 10:19:39;;;;;;;20.48;11.23;;;;;;;;;;5011118;28;20087;-73
2021/03/23 10:22:12;;;;;;;20.77;11.30;;;;;;;;;;5011266;28;20045;-71
2021/03/23 10:24:39;;;;;;;29.08;13.02;;;;;;;;;;5012402;28;20033;-70
2021/03/23 10:27:18;;;;;;;22.67;11.35;;;;;;;;;;5018496;28;20055;-71
2021/03/23 10:29:56;;;;;;;19.02;11.75;;;;;;;;;;5019329;28;20037;-73
2021/03/23 10:32:31;;;;;;;22.15;11.55;;;;;;;;;;5013080;28;20120;-69
2021/03/23 10:35:11;;;;;;;20.40;10.68;;;;;;;;;;5015934;28;20041;-72
2021/03/23 10:37:40;;;;;;;18.23;11.18;;;;;;;;;;5012842;28;20052;-71
2021/03/23 10:40:28;;;;;;;19.05;11.18;;;;;;;;;;5011629;28;20053;-70
2021/03/23 10:42:53;;;;;;;17.83;11.85;;;;;;;;;;5011021;28;21065;-71
2021/03/23 10:45:39;;;;;;;22.25;11.80;;;;;;;;;;5012936;28;20128;-73
2021/03/23 10:48:15;;;;;;;23.40;11.52;;;;;;;;;;5009677;28;20090;-73
2021/03/23 10:50:42;;;;;;;19.02;11.20;;;;;;;;;;5012446;28;20029;-74
2021/03/23 10:53:13;;;;;;;18.48;11.05;;;;;;;;;;5012795;28;20109;-73
2021/03/23 10:55:48;;;;;;;18.52;11.00;;;;;;;;;;5016205;28;22101;-73
2021/03/23 10:58:22;;;;;;;17.13;10.88;;;;;;;;;;5001693;28;20033;-72
2021/03/23 11:00:47;;;;;;;;;;;;;;;;;;5018818;28;20152;-72
2021/03/23 11:03:19;;;;;;;16.77;10.90;;;;;;;;;;5018740;28;20178;-72
2021/03/23 11:05:54;;;;;;;19.83;10.88;;;;;;;;;;5017476;28;22241;-72
2021/03/23 11:08:21;;;;;;;19.98;10.35;;;;;;;;;;5014080;28;20033;-73
2021/03/23 11:10:50;;;;;;;19.35;12.55;;;;;;;;;;5013572;28;20037;-73
2021/03/23 11:13:20;;;;;;;19.75;12.30;;;;;;;;;;5017402;28;20044;-71
2021/03/23 11:15:50;;;;;;;17.73;10.95;;;;;;;;;;5013025;28;20025;-73
2021/03/23 11:18:16;;;;;;;19.17;11.48;;;;;;;;;;4994768;28;20139;-72
2021/03/23 11:20:43;;;;;;;18.13;11.70;;;;;;;;;;5011716;28;20970;-72
2021/03/23 11:23:29;;;;;;;19.80;10.95;;;;;;;;;;5014625;28;20033;-72
2021/03/23 11:25:57;;;;;;;18.10;11.98;;;;;;;;;;5004315;28;20053;-71
2021/03/23 11:28:23;;;;;;;18.48;11.68;;;;;;;;;;5004857;28;20082;-73
2021/03/23 11:30:51;;;;;;;20.33;11.93;;;;;;;;;;5022236;28;20040;-72
2021/03/23 11:33:17;;;;;;;19.85;11.88;;;;;;;;;;5011112;28;20132;-73
2021/03/23 11:35:46;;;;;;;16.20;11.77;;;;;;;;;;5010438;28;20025;-69
2021/03/23 11:38:15;;;;;;;17.45;11.02;;;;;;;;;;5012988;28;20132;-70
2021/03/23 11:40:40;;;;;;;17.60;11.30;;;;;;;;;;5009445;28;21871;-72
2021/03/23 11:43:09;;;;;;;20.13;11.43;;;;;;;;;;4994241;28;20048;-72
2021/03/23 11:45:38;;;;;;;19.58;11.85;;;;;;;;;;5010108;28;20032;-68
2021/03/23 11:48:10;;;;;;;20.50;13.02;;;;;;;;;;5009399;28;20036;-73
2021/03/23 11:50:39;;;;;;;17.60;11.68;;;;;;;;;;4991811;28;21088;-74
2021/03/23 11:53:05;;;;;;;21.67;12.77;;;;;;;;;;5013843;28;20168;-69
2021/03/23 11:55:32;;;;;;;21.75;13.02;;;;;;;;;;5009281;28;20035;-68
2021/03/23 11:58:01;;;;;;;21.23;12.52;;;;;;;;;;5019989;28;20028;-72
2021/03/23 12:00:32;;;;;;;18.08;12.40;;;;;;;;;;5020066;28;20030;-70
2021/03/23 12:02:59;;;;;;;21.90;13.15;;;;;;;;;;5005809;28;20087;-72
2021/03/23 12:05:25;;;;;;;22.02;12.90;;;;;;;;;;4998218;28;20052;-72
2021/03/23 12:08:10;;;;;;;21.00;12.55;;;;;;;;;;5009126;28;20041;-70
2021/03/23 12:10:58;;;;;;;18.48;11.35;;;;;;;;;;5008251;28;20036;-72
2021/03/23 12:13:47;;;;;;;25.27;13.35;;;;;;;;;;5008358;28;20432;-72
2021/03/23 12:16:21;;;;;;;22.27;12.57;;;;;;;;;;5022528;28;21351;-73
2021/03/23 12:18:53;;;;;;;23.40;14.20;;;;;;;;;;5014064;28;20033;-71
2021/03/23 12:21:19;;;;;;;25.63;14.27;;;;;;;;;;5003435;28;20126;-72
2021/03/23 12:23:47;;;;;;;25.60;13.50;;;;;;;;;;5014020;28;20017;-68
2021/03/23 12:26:15;;;;;;;25.92;13.13;;;;;;;;;;5001777;28;20123;-68
2021/03/23 12:28:43;;;;;;;27.80;14.55;;;;;;;;;;5022928;28;20044;-71
2021/03/23 12:31:09;;;;;;;24.80;13.88;;;;;;;;;;5013956;28;20033;-71
2021/03/23 12:33:34;;;;;;;24.73;14.35;;;;;;;;;;5008824;28;20021;-70
2021/03/23 12:36:00;;;;;;;23.17;13.15;;;;;;;;;;5014680;28;20025;-71
2021/03/23 12:38:26;;;;;;;24.92;13.50;;;;;;;;;;5022799;28;20116;-70
2021/03/23 12:40:55;;;;;;;24.58;12.68;;;;;;;;;;5011746;28;20044;-68
2021/03/23 12:43:27;;;;;;;26.73;14.60;;;;;;;;;;4996857;28;20081;-70
2021/03/23 12:45:56;;;;;;;26.75;13.27;;;;;;;;;;5005394;28;20033;-70
2021/03/23 12:48:22;;;;;;;26.67;13.77;;;;;;;;;;5006700;28;20523;-72
2021/03/23 12:50:48;;;;;;;24.75;13.88;;;;;;;;;;5008878;28;20034;-73
2021/03/23 12:53:17;;;;;;;22.42;13.15;;;;;;;;;;5008865;28;20041;-69
2021/03/23 12:55:48;;;;;;;20.95;12.63;;;;;;;;;;5009497;28;20510;-67
2021/03/23 12:58:15;;;;;;;22.38;12.82;;;;;;;;;;4988587;28;20123;-71
2021/03/23 13:00:44;;;;;;;24.23;12.93;;;;;;;;;;5021250;28;20028;-72
2021/03/23 13:03:17;;;;;;;23.25;12.93;;;;;;;;;;5001478;28;20172;-72
2021/03/23 13:05:51;;;;;;;22.17;13.35;;;;;;;;;;5010712;28;20036;-70
2021/03/23 13:08:36;;;;;;;21.70;12.53;;;;;;;;;;5017528;28;20036;-72
2021/03/23 13:11:11;;;;;;;19.17;12.23;;;;;;;;;;5015771;28;20087;-72
2021/03/23 13:13:42;;;;;;;22.33;12.57;;;;;;;;;;5016090;28;20037;-72
2021/03/23 13:16:13;;;;;;;17.60;12.05;;;;;;;;;;5010756;28;20459;-74
2021/03/23 13:18:39;;;;;;;24.52;12.98;;;;;;;;;;5016636;28;20267;-71
2021/03/23 13:21:05;;;;;;;21.35;12.60;;;;;;;;;;5013277;28;20591;-69
2021/03/23 13:23:37;;;;;;;22.52;12.73;;;;;;;;;;5020371;28;20557;-69
2021/03/23 13:26:08;;;;;;;23.80;12.65;;;;;;;;;;5002827;28;20040;-71
2021/03/23 13:28:39;;;;;;;18.58;12.80;;;;;;;;;;5017767;28;20397;-70
2021/03/23 13:31:04;;;;;;;22.00;13.38;;;;;;;;;;5017606;28;22188;-68
2021/03/23 13:33:35;;;;;;;22.88;13.48;;;;;;;;;;5020487;28;20032;-70
2021/03/23 13:36:06;;;;;;;24.38;14.20;;;;;;;;;;5027779;28;20036;-71
2021/03/23 13:38:31;;;;;;;25.25;14.27;;;;;;;;;;5026558;28;20114;-70
2021/03/23 13:40:57;;;;;;;28.63;15.15;;;;;;;;;;5000675;28;20049;-72
2021/03/23 13:43:26;;;;;;;27.05;14.90;;;;;;;;;;5006933;28;21941;-72
2021/03/23 13:46:02;;;;;;;26.95;14.55;;;;;;;;;;5010727;28;20432;-70
2021/03/23 13:48:29;;;;;;;29.35;14.07;;;;;;;;;;5008912;28;20025;-72
2021/03/23 13:50:59;;;;;;;27.10;14.68;;;;;;;;;;5015941;28;20033;-70
2021/03/23 13:53:26;;;;;;;27.17;15.10;;;;;;;;;;5010141;28;20036;-70
2021/03/23 13:55:57;;;;;;;22.75;14.85;;;;;;;;;;5016550;28;20079;-70
2021/03/23 13:58:28;;;;;;;22.90;14.55;;;;;;;;;;5020432;28;20033;-69
2021/03/23 14:00:59;;;;;;;29.58;15.95;;;;;;;;;;5019315;28;20064;-69
2021/03/23 14:03:25;;;;;;;24.98;14.45;;;;;;;;;;5018067;28;20148;-70
2021/03/23 14:05:55;;;;;;;29.23;15.25;;;;;;;;;;5010780;28;20889;-71
2021/03/23 14:08:23;;;;;;;26.65;14.48;;;;;;;;;;5009751;28;20029;-70
2021/03/23 14:10:52;;;;;;;29.67;15.25;;;;;;;;;;5013382;28;20127;-72
2021/03/23 14:13:19;;;;;;;28.35;15.48;;;;;;;;;;5012125;28;20032;-70
2021/03/23 14:15:48;;;;;;;29.30;15.43;;;;;;;;;;5018148;28;20033;-71
2021/03/23 14:18:24;;;;;;;25.15;13.65;;;;;;;;;;5014946;28;20057;-71
2021/03/23 14:20:51;;;;;;;30.42;15.18;;;;;;;;;;5016275;28;20036;-71
2021/03/23 14:23:29;;;;;;;30.13;13.30;;;;;;;;;;5015298;28;20108;-72
2021/03/23 14:25:55;;;;;;;26.33;15.20;;;;;;;;;;5010133;28;20983;-70
2021/03/23 14:28:24;;;;;;;29.60;14.68;;;;;;;;;;5014791;28;20048;-68
2021/03/23 14:30:49;;;;;;;33.72;15.13;;;;;;;;;;5005928;28;22069;-70
2021/03/23 14:33:15;;;;;;;23.02;12.95;;;;;;;;;;5015489;28;20029;-69
2021/03/23 14:35:45;;;;;;;24.65;14.50;;;;;;;;;;5010236;28;20108;-71
2021/03/23 14:38:16;;;;;;;24.55;14.32;;;;;;;;;;4996489;28;20037;-70
2021/03/23 14:40:42;;;;;;;23.38;13.63;;;;;;;;;;5017459;28;20025;-71
2021/03/23 14:43:12;;;;;;;22.60;13.38;;;;;;;;;;5011160;28;20037;-72
2021/03/23 14:45:38;;;;;;;24.00;13.98;;;;;;;;;;5011219;28;20076;-70
2021/03/23 14:48:07;;;;;;;22.13;13.52;;;;;;;;;;5013815;28;20480;-72
2021/03/23 14:50:34;;;;;;;23.85;13.95;;;;;;;;;;5009937;28;20093;-69